Time;durP1;ratioP1;P1;durP2;ratioP2;P2;SDS_P1;SDS_P2;PMS_P1;PMS_P2;Temp;Humidity;BMP_temperature;BMP_pressure;BME280_temperature;BME280_humidity;BME280_pressure;Samples;Min_cycle;Max_cycle;Signal;HPM_P1;HPM_P2
2022/04/07 00:00:06;;;;;;;34.72;23.80;;;;;;;10.59;62.25;99804.84;5051609;28;20048;-83
2022/04/07 00:02:32;;;;;;;31.80;22.08;;;;;;;10.71;62.34;99802.97;5031723;28;20049;-83
2022/04/07 00:04:57;;;;;;;29.00;20.73;;;;;;;10.63;62.45;99801.28;5017705;28;20120;-84
2022/04/07 00:07:23;;;;;;;28.52;19.08;;;;;;;10.60;61.94;99799.56;5031810;28;20381;-84
2022/04/07 00:09:48;;;;;;;28.63;16.65;;;;;;;10.31;62.15;99779.75;5035724;28;20036;-83
2022/04/07 00:12:14;;;;;;;30.02;19.15;;;;;;;10.37;62.24;99781.44;5048213;28;20100;-84
2022/04/07 00:14:42;;;;;;;33.00;20.27;;;;;;;10.59;62.44;99810.97;5046112;28;20052;-83
2022/04/07 00:17:08;;;;;;;29.08;19.80;;;;;;;10.43;63.66;99810.22;5049134;28;20021;-83
2022/04/07 00:19:34;;;;;;;25.65;18.95;;;;;;;10.45;63.72;99810.22;5033605;28;20368;-83
2022/04/07 00:22:01;;;;;;;22.02;17.58;;;;;;;10.14;63.15;99771.16;5013074;28;20049;-84
2022/04/07 00:24:27;;;;;;;24.08;18.75;;;;;;;10.23;64.01;99784.19;5050527;28;20039;-84
2022/04/07 00:26:52;;;;;;;25.42;17.60;;;;;;;10.50;62.50;99800.56;5031463;28;20438;-83
2022/04/07 00:29:18;;;;;;;25.00;17.55;;;;;;;10.57;61.65;99782.13;5053478;28;20025;-84
2022/04/07 00:31:44;;;;;;;27.17;15.88;;;;;;;10.40;61.09;99772.69;5033925;28;20035;-85
2022/04/07 00:34:11;;;;;;;23.10;16.13;;;;;;;10.72;60.68;99796.84;5053632;28;20052;-84
2022/04/07 00:36:37;;;;;;;19.02;15.65;;;;;;;10.88;61.14;99779.16;5048002;28;20487;-85
2022/04/07 00:39:03;;;;;;;19.13;13.30;;;;;;;10.83;59.19;99752.09;5056345;28;20119;-83
2022/04/07 00:41:29;;;;;;;21.75;12.85;;;;;;;11.22;58.23;99786.63;5021058;28;20029;-84
2022/04/07 00:43:55;;;;;;;29.92;13.82;;;;;;;11.11;58.17;99742.13;5054773;28;20549;-83
2022/04/07 00:46:21;;;;;;;19.33;10.98;;;;;;;11.15;57.38;99751.69;5052287;28;21283;-83
2022/04/07 00:48:46;;;;;;;20.17;10.52;;;;;;;10.84;56.80;99735.47;5027462;28;20049;-83
2022/04/07 00:51:12;;;;;;;16.10;11.30;;;;;;;10.66;57.37;99733.06;5062484;28;20042;-83
2022/04/07 00:53:39;;;;;;;18.23;11.63;;;;;;;10.65;58.16;99771.56;5063031;28;20056;-87
2022/04/07 00:56:06;;;;;;;19.42;11.18;;;;;;;10.64;58.39;99743.56;5062271;28;20027;-86
2022/04/07 00:58:33;;;;;;;17.27;12.48;;;;;;;10.45;59.14;99739.41;5053480;28;20036;-85
2022/04/07 01:00:59;;;;;;;16.30;11.77;;;;;;;10.50;60.41;99759.44;5069646;28;20037;-86
2022/04/07 01:03:25;;;;;;;20.55;10.80;;;;;;;10.56;59.54;99748.91;5067641;28;20043;-86
2022/04/07 01:05:51;;;;;;;16.73;11.52;;;;;;;10.47;59.54;99712.28;5050589;28;20039;-88
2022/04/07 01:08:16;;;;;;;17.58;12.15;;;;;;;10.02;62.17;99710.94;5070996;28;20372;-87
2022/04/07 01:10:45;;;;;;;22.17;12.57;;;;;;;10.11;62.60;99734.44;5072053;28;20031;-87
2022/04/07 01:13:12;;;;;;;17.48;13.05;;;;;;;9.78;64.63;99731.22;5068952;28;20503;-87
2022/04/07 01:15:38;;;;;;;17.50;12.23;;;;;;;9.67;64.58;99707.75;5055313;28;20068;-87
2022/04/07 01:18:04;;;;;;;17.10;12.57;;;;;;;9.91;64.05;99700.56;5045120;28;20064;-87
2022/04/07 01:20:31;;;;;;;16.98;12.88;;;;;;;9.79;64.36;99714.66;5069525;28;20036;-87
2022/04/07 01:22:57;;;;;;;20.05;13.15;;;;;;;10.10;64.27;99735.34;5048356;28;20035;-87
2022/04/07 01:25:27;;;;;;;18.58;12.30;;;;;;;9.79;63.56;99688.44;5068226;28;20040;-83
2022/04/07 01:27:54;;;;;;;19.67;11.63;;;;;;;9.99;63.06;99708.34;5068722;28;20040;-86
2022/04/07 01:30:20;;;;;;;15.52;10.73;;;;;;;10.00;62.14;99689.16;5070686;28;20037;-86
2022/04/07 01:32:56;;;;;;;18.45;12.13;;;;;;;9.98;62.26;99704.88;5058097;28;20052;-83
2022/04/07 01:35:25;;;;;;;10.82;9.52;;;;;;;9.66;62.28;99671.94;5043847;28;20124;-86
2022/04/07 01:37:55;;;;;;;11.48;8.82;;;;;;;9.47;62.62;99684.31;5041279;28;20020;-87
2022/04/07 01:40:28;;;;;;;13.15;8.45;;;;;;;9.32;63.13;99702.78;5067456;28;20070;-83
2022/04/07 01:42:54;;;;;;;13.27;8.68;;;;;;;9.29;63.41;99681.81;5065148;28;20175;-84
2022/04/07 01:45:20;;;;;;;19.42;9.00;;;;;;;9.40;62.71;99671.28;5046246;28;20496;-84
2022/04/07 01:47:47;;;;;;;14.73;9.63;;;;;;;9.65;62.98;99696.41;5069494;28;20140;-84
2022/04/07 01:50:14;;;;;;;15.10;8.10;;;;;;;9.45;61.73;99686.06;5068155;28;20080;-84
2022/04/07 01:52:45;;;;;;;10.60;7.70;;;;;;;9.35;61.81;99689.66;5073385;28;20025;-84
2022/04/07 01:55:20;;;;;;;19.27;9.27;;;;;;;9.55;61.16;99662.44;5063379;28;20062;-82
2022/04/07 01:57:47;;;;;;;15.68;8.52;;;;;;;9.20;61.38;99667.06;5065843;28;20067;-83
2022/04/07 02:00:13;;;;;;;10.82;8.30;;;;;;;8.98;63.58;99668.06;5070669;28;20040;-83
2022/04/07 02:02:39;;;;;;;11.20;9.15;;;;;;;8.59;64.58;99657.81;5052779;28;20099;-85
2022/04/07 02:05:09;;;;;;;13.73;8.15;;;;;;;8.57;65.27;99666.50;5067395;28;20051;-85
2022/04/07 02:07:38;;;;;;;13.95;9.45;;;;;;;8.08;66.67;99657.06;5059086;28;20059;-85
2022/04/07 02:10:04;;;;;;;16.85;10.00;;;;;;;8.18;66.52;99682.28;5066270;28;20094;-83
2022/04/07 02:12:33;;;;;;;16.55;10.38;;;;;;;8.34;66.51;99674.41;5067977;28;20049;-83
2022/04/07 02:15:02;;;;;;;16.45;9.60;;;;;;;8.21;66.13;99665.72;5050614;28;20059;-86
2022/04/07 02:17:31;;;;;;;13.50;10.50;;;;;;;8.40;66.15;99698.81;5065828;28;20060;-86
2022/04/07 02:20:02;;;;;;;17.25;11.98;;;;;;;8.22;66.09;99681.41;5051563;28;20075;-87
2022/04/07 02:22:28;;;;;;;17.05;12.30;;;;;;;8.69;65.29;99678.69;5044677;28;20061;-87
2022/04/07 02:24:56;;;;;;;16.52;9.98;;;;;;;8.08;66.29;99661.38;5050986;28;20387;-89
2022/04/07 02:27:22;;;;;;;15.50;11.07;;;;;;;8.34;65.97;99677.03;5060645;28;20116;-89
2022/04/07 02:29:47;;;;;;;13.10;10.70;;;;;;;8.22;66.68;99649.19;5068486;28;20044;-88
2022/04/07 02:32:13;;;;;;;21.13;12.80;;;;;;;8.04;66.97;99650.94;5048621;28;20036;-87
2022/04/07 02:34:42;;;;;;;15.73;11.18;;;;;;;8.15;66.57;99655.31;5068295;28;20380;-89
2022/04/07 02:37:08;;;;;;;16.35;11.32;;;;;;;7.94;67.38;99675.38;5064892;28;20052;-88
2022/04/07 02:39:34;;;;;;;16.95;11.32;;;;;;;7.90;67.54;99675.38;5075456;28;20048;-91
2022/04/07 02:42:00;;;;;;;15.52;11.88;;;;;;;7.63;68.22;99642.31;5063698;28;20067;-85
2022/04/07 02:44:25;;;;;;;15.27;10.40;;;;;;;7.59;69.41;99670.16;5052885;28;20088;-84
2022/04/07 02:46:51;;;;;;;19.98;13.05;;;;;;;7.52;69.79;99639.72;5040484;28;20031;-85
2022/04/07 02:49:17;;;;;;;17.10;12.15;;;;;;;7.63;68.94;99632.72;5067172;28;20032;-84
2022/04/07 05:17:59;;;;;;;15.05;12.73;;;;;;;9.30;58.66;99425.28;5746595;23;8586925;-70
2022/04/07 05:20:25;;;;;;;14.88;11.85;;;;;;;9.48;58.42;99465.22;6087974;23;20027;-70
2022/04/07 05:22:51;;;;;;;16.45;12.30;;;;;;;10.24;56.71;99465.16;6058997;23;20085;-70
2022/04/07 05:25:16;;;;;;;31.20;13.60;;;;;;;10.75;55.67;99439.06;6035026;23;20003;-71
2022/04/07 05:27:45;;;;;;;15.77;11.27;;;;;;;11.23;54.29;99470.59;6030720;23;20506;-71
2022/04/07 05:30:15;;;;;;;11.23;10.07;;;;;;;10.55;54.12;99424.50;6033557;23;20034;-70
2022/04/07 05:32:44;;;;;;;12.88;11.38;;;;;;;10.45;56.32;99449.16;6033170;23;20335;-70
2022/04/07 05:35:13;;;;;;;21.45;12.68;;;;;;;10.72;55.77;99425.97;6008269;23;20324;-70
2022/04/07 05:37:39;;;;;;;15.68;11.05;;;;;;;10.44;55.17;99436.94;6032433;23;20017;-69
2022/04/07 05:40:11;;;;;;;14.55;11.73;;;;;;;10.09;56.59;99438.28;6035380;23;20011;-71
2022/04/07 05:42:37;;;;;;;22.58;11.32;;;;;;;10.69;54.89;99415.56;6033530;23;20026;-69
2022/04/07 05:45:04;;;;;;;18.80;10.68;;;;;;;11.17;54.04;99428.72;6035261;23;20459;-69
2022/04/07 05:47:29;;;;;;;27.08;12.93;;;;;;;11.08;54.69;99394.75;6032658;23;20595;-69
2022/04/07 05:49:56;;;;;;;18.50;11.60;;;;;;;11.07;54.62;99430.63;6035022;23;20043;-69
2022/04/07 05:52:22;;;;;;;27.83;12.20;;;;;;;11.69;52.37;99392.69;6033620;23;20003;-69
2022/04/07 05:54:48;;;;;;;18.08;10.43;;;;;;;12.70;51.11;99443.00;6034669;23;20102;-68
2022/04/07 05:57:14;;;;;;;14.40;10.20;;;;;;;12.43;52.02;99392.78;6035537;23;20023;-70
2022/04/07 05:59:39;;;;;;;16.60;9.00;;;;;;;10.80;55.25;99423.25;6033809;23;20027;-69
2022/04/07 06:02:05;;;;;;;26.05;11.93;;;;;;;11.32;55.20;99423.16;6029489;23;20023;-69
2022/04/07 06:04:31;;;;;;;51.92;14.73;;;;;;;11.84;53.05;99379.19;6026607;23;20493;-68
2022/04/07 06:06:56;;;;;;;34.95;11.95;;;;;;;12.01;53.00;99408.66;6028565;23;20008;-69
2022/04/07 06:09:22;;;;;;;18.98;10.75;;;;;;;12.28;51.92;99387.88;6027011;23;20538;-69
2022/04/07 06:11:47;;;;;;;11.25;8.52;;;;;;;12.21;51.50;99375.78;6026731;23;20024;-68
2022/04/07 06:14:13;;;;;;;20.35;11.07;;;;;;;11.75;52.89;99379.41;6029511;23;20072;-69
2022/04/07 06:16:39;;;;;;;16.98;9.10;;;;;;;12.31;52.18;99373.78;6025102;23;20016;-69
2022/04/07 06:19:04;;;;;;;14.00;8.45;;;;;;;12.17;51.37;99369.72;6026964;23;20013;-70
2022/04/07 06:21:30;;;;;;;16.80;9.93;;;;;;;13.32;50.81;99386.13;6023735;23;20027;-68
2022/04/07 06:23:57;;;;;;;22.85;9.63;;;;;;;13.90;48.43;99380.03;6027986;23;20034;-69
2022/04/07 06:26:23;;;;;;;19.10;9.57;;;;;;;13.62;47.41;99368.59;6027602;23;20109;-69
2022/04/07 06:28:49;;;;;;;13.75;9.43;;;;;;;13.86;47.41;99380.19;6028407;23;20008;-70
2022/04/07 06:31:15;;;;;;;20.50;8.95;;;;;;;13.83;46.99;99359.19;6027900;23;20458;-72
2022/04/07 06:33:40;;;;;;;9.23;8.30;;;;;;;13.83;47.53;99373.22;6027558;23;20358;-71
2022/04/07 06:36:07;;;;;;;10.30;8.02;;;;;;;14.14;46.77;99356.44;6027746;23;20505;-71
2022/04/07 06:38:33;;;;;;;23.60;9.25;;;;;;;14.14;47.28;99359.97;6026134;23;20124;-71
2022/04/07 06:40:59;;;;;;;16.75;8.05;;;;;;;13.61;47.71;99344.00;6028111;23;20407;-71
2022/04/07 06:43:25;;;;;;;21.67;8.68;;;;;;;13.59;48.57;99351.09;6028773;23;20012;-68
2022/04/07 06:45:51;;;;;;;11.52;8.45;;;;;;;13.39;47.89;99372.78;6027046;23;20127;-70
2022/04/07 06:48:16;;;;;;;14.68;9.43;;;;;;;13.62;47.43;99366.81;6026947;23;20103;-70
2022/04/07 06:50:44;;;;;;;15.05;7.38;;;;;;;13.65;48.66;99329.84;6025746;23;20050;-70
2022/04/07 06:53:12;;;;;;;16.23;8.27;;;;;;;13.82;47.63;99336.38;6027560;23;20022;-69
2022/04/07 06:55:38;;;;;;;16.23;7.57;;;;;;;13.78;47.75;99326.81;6027539;23;20013;-69
2022/04/07 06:58:06;;;;;;;11.95;7.43;;;;;;;13.81;46.98;99327.56;6027514;23;20090;-69
2022/04/07 07:00:35;;;;;;;34.00;10.27;;;;;;;13.79;47.71;99344.34;6027671;23;20034;-70
2022/04/07 07:03:03;;;;;;;28.30;9.55;;;;;;;13.51;47.12;99318.84;6027437;23;20030;-70
2022/04/07 07:05:32;;;;;;;38.47;9.77;;;;;;;13.85;47.58;99326.59;6028425;23;20007;-69
2022/04/07 07:08:15;;;;;;;12.77;7.78;;;;;;;13.43;46.66;99336.66;6027487;23;20030;-70
2022/04/07 07:10:42;;;;;;;15.23;7.13;;;;;;;13.88;46.98;99291.34;6027882;23;20011;-69
2022/04/07 07:13:07;;;;;;;13.48;7.35;;;;;;;14.33;46.47;99333.84;6026310;23;20011;-69
2022/04/07 07:15:33;;;;;;;9.63;6.55;;;;;;;13.47;46.25;99338.28;6026391;23;20020;-69
2022/04/07 07:17:58;;;;;;;16.80;7.28;;;;;;;13.50;45.76;99299.50;6025930;23;20023;-69
2022/04/07 07:20:24;;;;;;;9.73;7.75;;;;;;;14.01;45.33;99303.22;6025643;23;20097;-69
2022/04/07 07:22:50;;;;;;;9.98;7.40;;;;;;;13.76;45.28;99321.59;6028205;23;20065;-69
2022/04/07 07:25:15;;;;;;;12.27;8.10;;;;;;;13.71;45.41;99305.91;6028134;23;20413;-69
2022/04/07 07:27:43;;;;;;;12.20;8.23;;;;;;;13.95;45.93;99313.97;6027843;23;20102;-70
2022/04/07 07:30:11;;;;;;;10.93;7.47;;;;;;;13.86;45.45;99280.84;6026702;23;20055;-69
2022/04/07 07:32:40;;;;;;;14.57;7.68;;;;;;;14.39;45.62;99274.72;6027705;23;20050;-69
2022/04/07 07:35:08;;;;;;;22.17;9.82;;;;;;;14.47;45.87;99279.72;6027594;23;20022;-70
2022/04/07 07:37:34;;;;;;;18.02;10.07;;;;;;;14.54;45.18;99289.22;6027441;23;20011;-69
2022/04/07 07:40:07;;;;;;;9.60;7.22;;;;;;;14.51;44.63;99254.97;6026551;23;20043;-69
2022/04/07 07:42:33;;;;;;;10.63;6.97;;;;;;;14.33;45.19;99256.47;6026175;23;20030;-69
2022/04/07 07:44:59;;;;;;;12.70;7.65;;;;;;;14.52;44.35;99256.69;6027547;23;20398;-69
2022/04/07 07:47:25;;;;;;;14.73;7.68;;;;;;;14.92;44.96;99277.31;6027420;23;20019;-69
2022/04/07 07:49:50;;;;;;;18.40;8.05;;;;;;;15.09;44.06;99279.31;6025739;23;20546;-68
2022/04/07 07:52:17;;;;;;;9.50;7.30;;;;;;;15.51;43.48;99277.78;6026511;23;20018;-68
2022/04/07 07:54:42;;;;;;;16.05;8.50;;;;;;;14.89;44.43;99265.97;6001918;23;20046;-68
2022/04/07 07:57:08;;;;;;;12.05;8.15;;;;;;;15.08;43.29;99243.25;6027509;23;20027;-69
2022/04/07 07:59:34;;;;;;;22.35;7.22;;;;;;;14.97;43.11;99238.38;6028004;23;20026;-69
2022/04/07 08:02:00;;;;;;;12.98;7.75;;;;;;;15.25;44.10;99269.03;6024948;23;20026;-68
2022/04/07 08:04:26;;;;;;;16.52;8.65;;;;;;;15.37;43.22;99231.56;6027788;23;20086;-69
2022/04/07 08:06:52;;;;;;;18.90;8.85;;;;;;;15.27;43.45;99219.63;6025988;23;20047;-68
2022/04/07 08:09:23;;;;;;;15.30;7.22;;;;;;;14.76;43.78;99224.16;6027628;23;20023;-68
2022/04/07 08:11:49;;;;;;;13.63;8.18;;;;;;;15.13;43.20;99214.03;6026239;23;20027;-68
2022/04/07 08:14:14;;;;;;;10.65;6.78;;;;;;;15.89;43.80;99241.03;6027839;23;20348;-69
2022/04/07 08:16:40;;;;;;;10.05;6.65;;;;;;;15.69;42.49;99228.59;6025683;23;20023;-69
2022/04/07 08:19:06;;;;;;;17.92;7.65;;;;;;;15.59;42.93;99222.78;6002256;23;20106;-69
2022/04/07 08:21:32;;;;;;;11.55;7.38;;;;;;;15.99;42.02;99189.47;6022829;23;20051;-69
2022/04/07 08:23:58;;;;;;;8.63;6.22;;;;;;;16.10;40.48;99196.97;6027762;23;20372;-69
2022/04/07 08:26:23;;;;;;;10.73;6.95;;;;;;;16.62;40.99;99227.34;6027356;23;20033;-70
2022/04/07 08:28:49;;;;;;;8.45;6.05;;;;;;;16.65;41.15;99198.06;6025671;23;20066;-69
2022/04/07 08:31:16;;;;;;;16.15;6.93;;;;;;;16.20;39.63;99203.56;6028871;23;20046;-69
2022/04/07 08:33:41;;;;;;;8.88;5.75;;;;;;;16.80;39.61;99198.34;6026026;23;20435;-70
2022/04/07 08:36:07;;;;;;;8.65;5.97;;;;;;;16.49;38.73;99215.56;6028280;23;20375;-70
2022/04/07 08:38:32;;;;;;;13.43;6.18;;;;;;;16.31;38.72;99152.81;6025604;23;20080;-70
2022/04/07 08:41:00;;;;;;;17.17;6.28;;;;;;;16.31;39.03;99195.19;6027481;23;20098;-70
2022/04/07 08:43:25;;;;;;;9.52;6.75;;;;;;;15.98;39.10;99169.22;6028974;23;20470;-70
2022/04/07 08:45:52;;;;;;;11.48;6.03;;;;;;;16.61;39.24;99177.09;6026321;23;20359;-70
2022/04/07 08:48:17;;;;;;;18.02;7.18;;;;;;;16.95;38.14;99154.38;6026119;23;20047;-70
2022/04/07 08:50:44;;;;;;;18.20;6.90;;;;;;;17.54;37.72;99171.91;6028143;23;20483;-69
2022/04/07 08:53:11;;;;;;;11.32;6.50;;;;;;;17.35;36.99;99156.03;6027147;23;20030;-69
2022/04/07 08:55:37;;;;;;;16.08;6.60;;;;;;;17.40;37.77;99154.00;6025645;23;20015;-69
2022/04/07 08:58:03;;;;;;;9.25;6.38;;;;;;;17.34;36.36;99117.19;6028349;23;20035;-69
2022/04/07 09:00:29;;;;;;;15.38;6.57;;;;;;;17.41;35.60;99113.28;6027857;23;20102;-70
2022/04/07 09:02:55;;;;;;;8.55;5.03;;;;;;;17.93;35.02;99110.72;6026345;23;20047;-69
2022/04/07 09:05:25;;;;;;;22.05;6.32;;;;;;;18.01;34.35;99097.06;6028209;23;20050;-69
2022/04/07 09:07:55;;;;;;;11.13;5.20;;;;;;;17.81;34.74;99099.88;6025958;23;20346;-69
2022/04/07 09:10:23;;;;;;;12.00;5.90;;;;;;;17.74;34.48;99093.97;6028992;23;20443;-70
2022/04/07 09:12:52;;;;;;;10.25;6.07;;;;;;;17.82;33.76;99109.56;6028593;23;20440;-71
2022/04/07 09:15:18;;;;;;;9.20;5.10;;;;;;;17.36;33.89;99098.56;6028952;23;20024;-70
2022/04/07 09:17:59;;;;;;;7.43;5.10;;;;;;;17.69;33.74;99074.78;6024118;23;20115;-70
2022/04/07 09:20:25;;;;;;;11.02;4.63;;;;;;;18.25;34.15;99086.94;6022789;23;20027;-70
2022/04/07 09:23:00;;;;;;;7.22;4.35;;;;;;;18.20;33.36;99065.09;6025875;23;20027;-70
2022/04/07 09:25:27;;;;;;;12.25;6.20;;;;;;;18.12;33.16;99076.13;6028256;23;20007;-72
2022/04/07 09:27:54;;;;;;;16.42;6.10;;;;;;;18.03;33.29;99081.06;6027631;23;20019;-70
2022/04/07 09:30:22;;;;;;;10.65;6.78;;;;;;;18.30;32.69;99082.25;6026160;23;20122;-70
2022/04/07 09:32:48;;;;;;;18.02;5.38;;;;;;;18.40;33.93;99058.69;6027647;23;20055;-70
2022/04/07 09:35:14;;;;;;;10.15;5.88;;;;;;;18.79;32.36;99051.34;6027810;23;20015;-70
2022/04/07 09:37:40;;;;;;;8.73;5.07;;;;;;;18.94;32.82;99067.28;6028062;23;20502;-70
2022/04/07 09:40:16;;;;;;;14.52;7.38;;;;;;;18.95;31.50;99050.38;6028377;23;20106;-70
2022/04/07 09:42:42;;;;;;;8.27;4.05;;;;;;;19.02;30.65;99023.47;6027282;23;20023;-70
2022/04/07 09:45:11;;;;;;;6.72;4.32;;;;;;;19.25;31.00;99020.34;6018011;23;20030;-71
2022/04/07 09:47:49;;;;;;;6.30;3.88;;;;;;;18.98;29.70;99060.84;6031768;23;20034;-70
2022/04/07 09:50:24;;;;;;;8.05;4.78;;;;;;;19.04;29.43;99043.69;6003486;23;20097;-70
2022/04/07 09:53:02;;;;;;;7.72;4.22;;;;;;;18.62;29.98;99047.78;6026978;23;20011;-70
2022/04/07 09:55:42;;;;;;;7.35;3.45;;;;;;;18.38;30.09;99033.16;6029347;23;20038;-71
2022/04/07 09:58:10;;;;;;;7.60;4.13;;;;;;;18.39;30.17;99046.38;6026938;23;20355;-70
2022/04/07 10:00:36;;;;;;;16.33;4.97;;;;;;;18.57;30.58;99007.34;6051393;23;20041;-70
2022/04/07 10:03:03;;;;;;;12.65;6.05;;;;;;;18.36;30.67;99038.56;6057201;23;20097;-70
2022/04/07 10:05:30;;;;;;;10.48;5.22;;;;;;;17.92;30.75;99012.59;6056817;23;20398;-70
2022/04/07 10:07:59;;;;;;;11.25;5.93;;;;;;;18.21;30.71;98997.75;6057110;23;20015;-71
2022/04/07 10:10:25;;;;;;;13.75;5.05;;;;;;;18.47;31.36;99030.88;6057613;23;20011;-71
2022/04/07 10:12:51;;;;;;;9.18;3.92;;;;;;;18.18;31.83;98999.75;6057425;23;20101;-71
2022/04/07 10:15:19;;;;;;;8.02;5.75;;;;;;;17.95;32.34;98990.34;6057049;23;20090;-70
2022/04/07 10:17:46;;;;;;;7.65;4.93;;;;;;;18.19;31.79;99012.94;6054424;23;20026;-70
2022/04/07 10:20:14;;;;;;;9.35;5.57;;;;;;;17.86;31.47;98997.00;6055364;23;20126;-70
2022/04/07 10:23:03;;;;;;;19.05;5.68;;;;;;;18.17;31.71;99022.78;6057046;23;20003;-69
2022/04/07 10:25:31;;;;;;;12.27;7.03;;;;;;;17.85;32.35;99014.72;6057541;23;20605;-69
2022/04/07 10:28:02;;;;;;;8.30;4.70;;;;;;;17.62;32.32;98985.84;6055870;23;20018;-70
2022/04/07 10:30:32;;;;;;;9.05;4.63;;;;;;;17.79;32.53;98983.16;6056775;23;20029;-70
2022/04/07 10:32:58;;;;;;;9.20;5.18;;;;;;;18.28;32.50;98999.13;6055619;23;20054;-70
2022/04/07 10:35:28;;;;;;;8.68;4.78;;;;;;;18.30;31.87;98997.25;6055420;23;20073;-70
2022/04/07 10:37:55;;;;;;;9.40;4.78;;;;;;;17.95;32.83;98991.19;6055724;23;20025;-70
2022/04/07 10:40:34;;;;;;;16.45;5.30;;;;;;;17.81;32.48;98953.94;6058599;23;20018;-71
2022/04/07 10:43:11;;;;;;;9.45;4.15;;;;;;;17.84;32.82;98986.47;6026295;23;20624;-70
2022/04/07 10:45:38;;;;;;;9.80;5.40;;;;;;;17.69;32.29;98980.13;6027728;23;20370;-70
2022/04/07 10:48:29;;;;;;;15.32;5.13;;;;;;;17.60;32.10;98947.94;6055911;23;20466;-70
2022/04/07 10:50:58;;;;;;;8.98;4.35;;;;;;;17.81;32.30;98961.88;6057365;23;20031;-71
2022/04/07 10:53:36;;;;;;;11.55;4.57;;;;;;;17.78;32.40;98968.19;6054523;23;20015;-71
2022/04/07 10:56:25;;;;;;;16.73;4.57;;;;;;;17.33;32.34;98924.56;6056411;23;20022;-71
2022/04/07 10:58:54;;;;;;;9.40;4.40;;;;;;;17.51;32.17;98958.09;6057019;23;20023;-71
2022/04/07 11:01:29;;;;;;;10.13;4.00;;;;;;;17.44;32.45;98958.47;6055680;23;20443;-70
2022/04/07 11:04:17;;;;;;;7.22;3.60;;;;;;;17.29;32.55;98918.56;6054489;23;20066;-70
2022/04/07 11:07:13;;;;;;;9.50;3.50;;;;;;;17.16;32.76;98908.66;6056877;23;20049;-70
2022/04/07 11:09:45;;;;;;;9.88;4.50;;;;;;;17.51;32.54;98951.91;6056652;23;20027;-70
2022/04/07 11:12:22;;;;;;;6.57;4.68;;;;;;;17.20;33.02;98896.97;6057525;23;20027;-70
2022/04/07 11:14:56;;;;;;;10.15;3.60;;;;;;;17.28;34.98;98929.25;6057278;23;20450;-71
2022/04/07 11:17:32;;;;;;;8.63;4.10;;;;;;;17.07;37.69;98894.09;6055001;23;20089;-70
2022/04/07 11:20:18;;;;;;;6.20;3.72;;;;;;;17.16;38.94;98933.38;6055127;23;20023;-70
2022/04/07 11:23:13;;;;;;;11.95;3.60;;;;;;;16.99;39.00;98942.16;6055768;23;20065;-71
2022/04/07 11:25:43;;;;;;;15.13;6.13;;;;;;;16.31;42.97;98926.03;6055477;23;20102;-70
2022/04/07 11:28:22;;;;;;;15.60;5.30;;;;;;;15.99;46.99;98961.91;6057841;23;20076;-71
2022/04/07 11:30:50;;;;;;;18.48;5.88;;;;;;;15.47;50.94;98974.78;6056939;23;20023;-70
2022/04/07 11:33:19;;;;;;;8.70;4.07;;;;;;;14.34;55.71;98945.00;6053539;23;20093;-71
2022/04/07 11:36:00;;;;;;;8.98;5.22;;;;;;;13.85;56.93;98953.94;6055079;23;20510;-70
2022/04/07 11:38:26;;;;;;;16.38;4.88;;;;;;;13.54;59.83;98955.06;6055615;23;20019;-70
2022/04/07 11:41:05;;;;;;;10.75;4.90;;;;;;;13.56;64.15;98953.22;6056679;23;20399;-71
2022/04/07 11:43:32;;;;;;;11.02;5.00;;;;;;;13.02;65.13;98946.28;6054791;23;20017;-70
2022/04/07 11:45:58;;;;;;;11.20;5.22;;;;;;;13.10;66.31;98963.53;6055674;23;20007;-70
2022/04/07 11:48:31;;;;;;;22.70;5.95;;;;;;;12.70;69.26;98965.78;6056256;23;20023;-72
2022/04/07 11:51:00;;;;;;;8.32;5.50;;;;;;;12.25;71.49;98967.16;6056412;23;20033;-72
2022/04/07 11:53:27;;;;;;;12.13;5.03;;;;;;;12.25;72.12;98959.25;6055419;23;20741;-72
2022/04/07 11:55:53;;;;;;;13.57;7.25;;;;;;;12.26;73.59;98953.09;6056316;23;20057;-72
2022/04/07 11:58:19;;;;;;;13.25;6.18;;;;;;;12.55;75.23;99002.19;6057227;23;20065;-70
2022/04/07 12:00:45;;;;;;;17.15;6.93;;;;;;;11.59;75.78;98955.88;6053276;23;20398;-70
2022/04/07 12:03:10;;;;;;;13.32;6.07;;;;;;;11.87;77.67;99002.41;6055242;23;20532;-71
2022/04/07 12:05:37;;;;;;;12.68;7.15;;;;;;;11.82;77.93;98968.34;6056558;23;20085;-71
2022/04/07 12:08:15;;;;;;;10.32;5.82;;;;;;;11.59;78.82;98969.88;6055815;23;20146;-71
2022/04/07 12:10:44;;;;;;;13.35;7.43;;;;;;;11.87;80.04;98989.25;6055859;23;20014;-71
2022/04/07 12:13:10;;;;;;;14.07;8.10;;;;;;;11.29;79.92;98961.06;6055732;23;20041;-71
2022/04/07 12:15:37;;;;;;;11.73;6.68;;;;;;;11.64;81.09;98997.81;6054789;23;20034;-71
2022/04/07 12:18:09;;;;;;;17.48;6.97;;;;;;;11.85;80.53;99005.09;6053065;23;20038;-71
2022/04/07 12:20:38;;;;;;;14.00;7.30;;;;;;;11.58;82.33;98976.03;6053076;23;20015;-71
2022/04/07 12:23:10;;;;;;;12.18;7.57;;;;;;;11.31;82.82;98964.50;6056602;23;20073;-71
2022/04/07 12:25:37;;;;;;;13.18;7.65;;;;;;;11.62;83.37;98995.22;6056102;23;20015;-70
2022/04/07 12:28:13;;;;;;;22.55;8.65;;;;;;;11.25;84.28;98967.28;6055466;23;20015;-70
2022/04/07 12:30:46;;;;;;;15.57;8.07;;;;;;;11.32;85.38;98968.00;6055140;23;20470;-71
2022/04/07 12:33:41;;;;;;;18.30;8.90;;;;;;;11.39;85.64;98973.03;6056677;23;20172;-71
2022/04/07 12:36:09;;;;;;;21.65;10.00;;;;;;;11.72;86.13;98987.94;6056520;23;20026;-70
2022/04/07 12:38:35;;;;;;;22.67;8.65;;;;;;;11.17;85.79;98959.63;6055204;23;20015;-71
2022/04/07 12:41:15;;;;;;;23.83;8.75;;;;;;;11.29;87.06;98965.47;6054894;23;20014;-71
2022/04/07 12:43:50;;;;;;;26.27;9.18;;;;;;;11.24;87.37;98967.31;6054850;23;20133;-70
2022/04/07 12:46:20;;;;;;;16.63;10.05;;;;;;;11.08;88.51;98975.59;6057547;23;20018;-70
2022/04/07 12:49:06;;;;;;;19.98;12.77;;;;;;;10.93;88.23;98966.38;6053972;23;20023;-70
2022/04/07 12:51:36;;;;;;;40.63;22.48;;;;;;;11.22;88.67;98998.03;6054916;23;20153;-70
2022/04/07 12:54:08;;;;;;;12.88;10.00;;;;;;;11.26;88.73;99000.53;6056022;23;20398;-70
2022/04/07 12:56:34;;;;;;;17.73;9.57;;;;;;;10.97;88.48;98983.72;6054671;23;20026;-70
2022/04/07 12:59:07;;;;;;;23.75;10.48;;;;;;;11.18;88.34;98987.56;6056072;23;20023;-70
2022/04/07 13:01:32;;;;;;;16.30;9.68;;;;;;;10.84;88.14;98950.84;6056659;23;20505;-70
2022/04/07 13:03:59;;;;;;;12.75;9.73;;;;;;;11.01;88.38;98958.28;6056502;23;20007;-71
2022/04/07 13:06:28;;;;;;;19.25;11.05;;;;;;;11.20;87.87;98959.53;6054453;23;20018;-70
2022/04/07 13:08:54;;;;;;;17.35;10.65;;;;;;;10.97;88.16;98954.84;6054709;23;20030;-70
2022/04/07 13:11:36;;;;;;;23.30;10.25;;;;;;;11.04;88.31;98979.19;6054898;23;20022;-71
2022/04/07 13:14:07;;;;;;;17.02;8.80;;;;;;;10.67;87.61;98943.34;6055897;23;20114;-70
2022/04/07 13:16:33;;;;;;;16.92;9.07;;;;;;;10.88;88.21;98983.97;6054488;23;20011;-70
2022/04/07 13:18:59;;;;;;;17.38;9.23;;;;;;;10.74;88.78;98946.69;6055049;23;20034;-70
2022/04/07 13:21:26;;;;;;;22.58;10.25;;;;;;;10.78;88.97;98953.59;6052204;23;20019;-70
2022/04/07 13:23:52;;;;;;;20.65;10.55;;;;;;;10.99;89.61;98974.06;6056344;23;20023;-71
2022/04/07 13:26:17;;;;;;;15.55;9.07;;;;;;;10.62;88.17;98933.88;6055788;23;20058;-71
2022/04/07 13:28:47;;;;;;;13.30;9.13;;;;;;;10.25;88.69;98942.56;6057338;23;20077;-70
2022/04/07 13:31:12;;;;;;;26.42;13.63;;;;;;;10.65;89.08;98976.66;6058355;23;20014;-70
2022/04/07 13:33:38;;;;;;;17.42;8.35;;;;;;;10.49;89.07;98963.03;6057674;23;20442;-71
2022/04/07 13:36:06;;;;;;;18.90;7.07;;;;;;;10.35;89.54;98952.84;6057258;23;20474;-70
2022/04/07 13:38:32;;;;;;;16.92;7.25;;;;;;;10.48;89.70;98947.31;6031961;23;20085;-70
2022/04/07 13:40:58;;;;;;;11.50;7.38;;;;;;;10.73;88.61;98977.31;6057493;23;20019;-70
2022/04/07 13:43:24;;;;;;;18.17;6.70;;;;;;;10.70;88.69;98960.78;6058046;23;20081;-70
2022/04/07 13:45:49;;;;;;;13.57;6.45;;;;;;;10.33;87.98;98944.16;6057363;23;20037;-70
2022/04/07 13:48:15;;;;;;;17.58;7.13;;;;;;;10.76;88.54;98966.75;6055346;23;20039;-70
2022/04/07 13:50:41;;;;;;;11.38;6.30;;;;;;;10.50;88.96;98956.03;6057173;23;20034;-70
2022/04/07 13:53:08;;;;;;;9.65;6.40;;;;;;;10.52;89.24;98920.13;6057651;23;20440;-70
2022/04/07 13:55:34;;;;;;;12.07;6.93;;;;;;;10.49;89.27;98918.44;6057287;23;20010;-70